sensor_id;sensor_type;location;lat;lon;timestamp;temperature;humidity
38131;DHT22;23947;51.894;4.622;2022-07-22T00:01:10;17.10;1.00
38131;DHT22;23947;51.894;4.622;2022-07-22T00:03:36;17.10;1.00
38131;DHT22;23947;51.894;4.622;2022-07-22T00:06:02;17.10;1.00
38131;DHT22;23947;51.894;4.622;2022-07-22T00:08:27;17.00;1.00
38131;DHT22;23947;51.894;4.622;2022-07-22T00:10:53;17.10;1.00
38131;DHT22;23947;51.894;4.622;2022-07-22T00:13:19;17.00;1.00
38131;DHT22;23947;51.894;4.622;2022-07-22T00:15:44;17.00;1.00
38131;DHT22;23947;51.894;4.622;2022-07-22T00:18:10;17.00;1.00
38131;DHT22;23947;51.894;4.622;2022-07-22T00:20:36;17.00;1.00
38131;DHT22;23947;51.894;4.622;2022-07-22T00:23:02;17.00;1.00
38131;DHT22;23947;51.894;4.622;2022-07-22T00:25:27;17.00;1.00
38131;DHT22;23947;51.894;4.622;2022-07-22T00:27:54;17.00;1.00
38131;DHT22;23947;51.894;4.622;2022-07-22T00:30:20;17.00;1.00
38131;DHT22;23947;51.894;4.622;2022-07-22T00:32:46;16.90;1.00
38131;DHT22;23947;51.894;4.622;2022-07-22T00:35:11;17.00;1.00
38131;DHT22;23947;51.894;4.622;2022-07-22T00:37:37;17.00;1.00
38131;DHT22;23947;51.894;4.622;2022-07-22T00:40:03;16.90;1.00
38131;DHT22;23947;51.894;4.622;2022-07-22T00:42:29;16.90;1.00
38131;DHT22;23947;51.894;4.622;2022-07-22T00:44:56;16.90;1.00
38131;DHT22;23947;51.894;4.622;2022-07-22T00:47:22;16.90;1.00
38131;DHT22;23947;51.894;4.622;2022-07-22T00:49:47;16.90;1.00
38131;DHT22;23947;51.894;4.622;2022-07-22T00:52:13;16.90;1.00
38131;DHT22;23947;51.894;4.622;2022-07-22T00:54:39;16.90;1.00
38131;DHT22;23947;51.894;4.622;2022-07-22T00:57:04;16.90;1.00
38131;DHT22;23947;51.894;4.622;2022-07-22T00:59:30;16.90;1.00
38131;DHT22;23947;51.894;4.622;2022-07-22T01:01:56;16.90;1.00
38131;DHT22;23947;51.894;4.622;2022-07-22T01:04:21;16.90;1.00
38131;DHT22;23947;51.894;4.622;2022-07-22T01:06:47;16.90;1.00
38131;DHT22;23947;51.894;4.622;2022-07-22T01:09:13;16.90;1.00
38131;DHT22;23947;51.894;4.622;2022-07-22T01:11:40;16.90;1.00
38131;DHT22;23947;51.894;4.622;2022-07-22T01:14:06;16.80;1.00
38131;DHT22;23947;51.894;4.622;2022-07-22T01:16:31;16.80;1.00
38131;DHT22;23947;51.894;4.622;2022-07-22T01:18:57;16.80;1.00
38131;DHT22;23947;51.894;4.622;2022-07-22T01:21:23;16.80;1.00
38131;DHT22;23947;51.894;4.622;2022-07-22T01:23:49;16.80;1.00
38131;DHT22;23947;51.894;4.622;2022-07-22T01:26:15;16.80;1.00
38131;DHT22;23947;51.894;4.622;2022-07-22T01:28:42;16.90;1.00
38131;DHT22;23947;51.894;4.622;2022-07-22T01:31:08;16.80;1.00
38131;DHT22;23947;51.894;4.622;2022-07-22T01:33:34;16.80;1.00
38131;DHT22;23947;51.894;4.622;2022-07-22T01:36:01;16.80;1.00
38131;DHT22;23947;51.894;4.622;2022-07-22T01:38:26;16.80;1.00
38131;DHT22;23947;51.894;4.622;2022-07-22T01:40:52;16.80;1.00
38131;DHT22;23947;51.894;4.622;2022-07-22T01:43:18;16.80;1.00
38131;DHT22;23947;51.894;4.622;2022-07-22T01:45:47;16.70;1.00
38131;DHT22;23947;51.894;4.622;2022-07-22T01:48:13;16.70;1.00
38131;DHT22;23947;51.894;4.622;2022-07-22T01:50:39;16.70;1.00
38131;DHT22;23947;51.894;4.622;2022-07-22T01:53:05;16.70;1.00
38131;DHT22;23947;51.894;4.622;2022-07-22T01:55:30;16.70;1.00
38131;DHT22;23947;51.894;4.622;2022-07-22T01:57:56;16.70;1.00
38131;DHT22;23947;51.894;4.622;2022-07-22T02:00:22;16.80;1.00
38131;DHT22;23947;51.894;4.622;2022-07-22T02:02:47;16.70;1.00
38131;DHT22;23947;51.894;4.622;2022-07-22T02:05:13;16.70;1.00
38131;DHT22;23947;51.894;4.622;2022-07-22T02:07:39;16.70;1.00
38131;DHT22;23947;51.894;4.622;2022-07-22T02:10:05;16.80;1.00
38131;DHT22;23947;51.894;4.622;2022-07-22T02:12:31;16.80;1.00
38131;DHT22;23947;51.894;4.622;2022-07-22T02:14:57;16.80;1.00
38131;DHT22;23947;51.894;4.622;2022-07-22T02:17:23;16.80;1.00
38131;DHT22;23947;51.894;4.622;2022-07-22T02:19:48;16.80;1.00
38131;DHT22;23947;51.894;4.622;2022-07-22T02:22:14;16.80;1.00
38131;DHT22;23947;51.894;4.622;2022-07-22T02:24:40;16.80;1.00
38131;DHT22;23947;51.894;4.622;2022-07-22T02:27:05;16.80;1.00
38131;DHT22;23947;51.894;4.622;2022-07-22T02:29:32;16.80;1.00
38131;DHT22;23947;51.894;4.622;2022-07-22T02:31:59;16.80;1.00
38131;DHT22;23947;51.894;4.622;2022-07-22T02:34:24;16.80;1.00
38131;DHT22;23947;51.894;4.622;2022-07-22T02:36:50;16.80;1.00
38131;DHT22;23947;51.894;4.622;2022-07-22T02:39:16;16.80;1.00
38131;DHT22;23947;51.894;4.622;2022-07-22T02:41:41;16.80;1.00
38131;DHT22;23947;51.894;4.622;2022-07-22T02:44:07;16.80;1.00
38131;DHT22;23947;51.894;4.622;2022-07-22T02:46:32;16.80;1.00
38131;DHT22;23947;51.894;4.622;2022-07-22T02:48:58;16.80;1.00
38131;DHT22;23947;51.894;4.622;2022-07-22T02:51:24;16.80;1.00
38131;DHT22;23947;51.894;4.622;2022-07-22T02:53:50;16.80;1.00
38131;DHT22;23947;51.894;4.622;2022-07-22T02:56:15;16.80;1.00
38131;DHT22;23947;51.894;4.622;2022-07-22T02:58:42;16.80;1.00
38131;DHT22;23947;51.894;4.622;2022-07-22T03:01:08;16.80;1.00
38131;DHT22;23947;51.894;4.622;2022-07-22T03:03:33;16.80;1.00
38131;DHT22;23947;51.894;4.622;2022-07-22T03:05:59;16.80;1.00
38131;DHT22;23947;51.894;4.622;2022-07-22T03:08:25;16.80;1.00
38131;DHT22;23947;51.894;4.622;2022-07-22T03:10:51;16.70;1.00
38131;DHT22;23947;51.894;4.622;2022-07-22T03:13:16;16.70;1.00
38131;DHT22;23947;51.894;4.622;2022-07-22T03:15:42;16.70;1.00
38131;DHT22;23947;51.894;4.622;2022-07-22T03:18:08;16.70;1.00
38131;DHT22;23947;51.894;4.622;2022-07-22T03:20:33;16.70;1.00
38131;DHT22;23947;51.894;4.622;2022-07-22T03:22:59;16.70;1.00
38131;DHT22;23947;51.894;4.622;2022-07-22T03:25:24;16.70;1.00
38131;DHT22;23947;51.894;4.622;2022-07-22T03:27:50;16.70;1.00
38131;DHT22;23947;51.894;4.622;2022-07-22T03:30:16;16.70;1.00
38131;DHT22;23947;51.894;4.622;2022-07-22T03:32:42;16.70;1.00
38131;DHT22;23947;51.894;4.622;2022-07-22T03:35:11;16.60;1.00
38131;DHT22;23947;51.894;4.622;2022-07-22T03:37:37;16.60;1.00
38131;DHT22;23947;51.894;4.622;2022-07-22T03:40:03;16.60;1.00
38131;DHT22;23947;51.894;4.622;2022-07-22T03:42:29;16.60;1.00
38131;DHT22;23947;51.894;4.622;2022-07-22T03:44:54;16.60;1.00
38131;DHT22;23947;51.894;4.622;2022-07-22T03:47:22;16.50;1.00
38131;DHT22;23947;51.894;4.622;2022-07-22T03:49:48;16.50;1.00
38131;DHT22;23947;51.894;4.622;2022-07-22T03:52:14;16.50;1.00
38131;DHT22;23947;51.894;4.622;2022-07-22T03:54:41;16.50;1.00
38131;DHT22;23947;51.894;4.622;2022-07-22T03:57:07;16.50;1.00
38131;DHT22;23947;51.894;4.622;2022-07-22T03:59:32;16.50;1.00
38131;DHT22;23947;51.894;4.622;2022-07-22T04:01:58;16.50;1.00
38131;DHT22;23947;51.894;4.622;2022-07-22T04:04:24;16.50;1.00
38131;DHT22;23947;51.894;4.622;2022-07-22T04:06:49;16.50;1.00
38131;DHT22;23947;51.894;4.622;2022-07-22T04:09:17;16.50;1.00
38131;DHT22;23947;51.894;4.622;2022-07-22T04:11:42;16.50;1.00
38131;DHT22;23947;51.894;4.622;2022-07-22T04:14:08;16.50;1.00
38131;DHT22;23947;51.894;4.622;2022-07-22T04:16:34;16.60;1.00
38131;DHT22;23947;51.894;4.622;2022-07-22T04:19:01;16.60;1.00
38131;DHT22;23947;51.894;4.622;2022-07-22T04:21:27;16.60;1.00
38131;DHT22;23947;51.894;4.622;2022-07-22T04:23:53;16.60;1.00
38131;DHT22;23947;51.894;4.622;2022-07-22T04:26:18;16.60;1.00
38131;DHT22;23947;51.894;4.622;2022-07-22T04:28:44;16.60;1.00
38131;DHT22;23947;51.894;4.622;2022-07-22T04:31:10;16.60;1.00
38131;DHT22;23947;51.894;4.622;2022-07-22T04:33:35;16.60;1.00
38131;DHT22;23947;51.894;4.622;2022-07-22T04:36:01;16.70;1.00
38131;DHT22;23947;51.894;4.622;2022-07-22T04:38:27;16.70;1.00
38131;DHT22;23947;51.894;4.622;2022-07-22T04:40:52;16.70;1.00
38131;DHT22;23947;51.894;4.622;2022-07-22T04:43:18;16.70;1.00
38131;DHT22;23947;51.894;4.622;2022-07-22T04:45:44;16.70;1.00
38131;DHT22;23947;51.894;4.622;2022-07-22T04:48:10;16.70;1.00
38131;DHT22;23947;51.894;4.622;2022-07-22T04:50:36;16.70;1.00
38131;DHT22;23947;51.894;4.622;2022-07-22T04:53:02;16.70;1.00
38131;DHT22;23947;51.894;4.622;2022-07-22T04:55:27;16.80;1.00
38131;DHT22;23947;51.894;4.622;2022-07-22T04:57:53;16.80;1.00
38131;DHT22;23947;51.894;4.622;2022-07-22T05:00:19;16.90;1.00
38131;DHT22;23947;51.894;4.622;2022-07-22T05:02:45;16.90;1.00
38131;DHT22;23947;51.894;4.622;2022-07-22T05:05:10;17.00;1.00
38131;DHT22;23947;51.894;4.622;2022-07-22T05:07:36;17.00;1.00
38131;DHT22;23947;51.894;4.622;2022-07-22T05:10:02;17.00;1.00
38131;DHT22;23947;51.894;4.622;2022-07-22T05:12:28;17.10;1.00
38131;DHT22;23947;51.894;4.622;2022-07-22T05:14:54;17.10;1.00
38131;DHT22;23947;51.894;4.622;2022-07-22T05:17:19;17.10;1.00
38131;DHT22;23947;51.894;4.622;2022-07-22T05:19:46;17.10;1.00
38131;DHT22;23947;51.894;4.622;2022-07-22T05:22:12;17.20;1.00
38131;DHT22;23947;51.894;4.622;2022-07-22T05:24:38;17.20;1.00
38131;DHT22;23947;51.894;4.622;2022-07-22T05:27:03;17.20;1.00
38131;DHT22;23947;51.894;4.622;2022-07-22T05:29:29;17.20;1.00
38131;DHT22;23947;51.894;4.622;2022-07-22T05:31:55;17.30;1.00
38131;DHT22;23947;51.894;4.622;2022-07-22T05:34:20;17.30;1.00
38131;DHT22;23947;51.894;4.622;2022-07-22T05:36:46;17.30;1.00
38131;DHT22;23947;51.894;4.622;2022-07-22T05:39:11;17.40;1.00
38131;DHT22;23947;51.894;4.622;2022-07-22T05:41:37;17.40;1.00
38131;DHT22;23947;51.894;4.622;2022-07-22T05:44:04;17.40;1.00
38131;DHT22;23947;51.894;4.622;2022-07-22T05:46:30;17.40;1.00
38131;DHT22;23947;51.894;4.622;2022-07-22T05:48:55;17.40;1.00
38131;DHT22;23947;51.894;4.622;2022-07-22T05:51:21;17.40;1.00
38131;DHT22;23947;51.894;4.622;2022-07-22T05:53:47;17.50;1.00
38131;DHT22;23947;51.894;4.622;2022-07-22T05:56:13;17.60;1.00
38131;DHT22;23947;51.894;4.622;2022-07-22T05:58:39;17.70;1.00
38131;DHT22;23947;51.894;4.622;2022-07-22T06:01:05;17.70;1.00
38131;DHT22;23947;51.894;4.622;2022-07-22T06:03:31;17.70;1.00
38131;DHT22;23947;51.894;4.622;2022-07-22T06:05:57;17.70;1.00
38131;DHT22;23947;51.894;4.622;2022-07-22T06:08:23;17.70;1.00
38131;DHT22;23947;51.894;4.622;2022-07-22T06:10:48;17.70;1.00
38131;DHT22;23947;51.894;4.622;2022-07-22T06:13:14;17.70;1.00
38131;DHT22;23947;51.894;4.622;2022-07-22T06:15:40;17.80;1.00
38131;DHT22;23947;51.894;4.622;2022-07-22T06:18:05;17.80;1.00
38131;DHT22;23947;51.894;4.622;2022-07-22T06:20:31;17.80;1.00
38131;DHT22;23947;51.894;4.622;2022-07-22T06:22:57;17.90;1.00
38131;DHT22;23947;51.894;4.622;2022-07-22T06:25:22;17.90;1.00
38131;DHT22;23947;51.894;4.622;2022-07-22T06:27:48;17.90;1.00
38131;DHT22;23947;51.894;4.622;2022-07-22T06:30:13;18.00;1.00
38131;DHT22;23947;51.894;4.622;2022-07-22T06:32:39;18.00;1.00
38131;DHT22;23947;51.894;4.622;2022-07-22T06:35:05;18.00;1.00
38131;DHT22;23947;51.894;4.622;2022-07-22T06:37:34;18.00;1.00
38131;DHT22;23947;51.894;4.622;2022-07-22T06:39:59;18.10;1.00
38131;DHT22;23947;51.894;4.622;2022-07-22T06:42:25;18.20;1.00
38131;DHT22;23947;51.894;4.622;2022-07-22T06:44:54;18.20;1.00
38131;DHT22;23947;51.894;4.622;2022-07-22T06:47:19;18.20;1.00
38131;DHT22;23947;51.894;4.622;2022-07-22T06:49:45;18.30;1.00
38131;DHT22;23947;51.894;4.622;2022-07-22T06:52:10;18.30;1.00
38131;DHT22;23947;51.894;4.622;2022-07-22T06:54:36;18.30;1.00
38131;DHT22;23947;51.894;4.622;2022-07-22T06:57:01;18.30;1.00
38131;DHT22;23947;51.894;4.622;2022-07-22T06:59:27;18.40;1.00
38131;DHT22;23947;51.894;4.622;2022-07-22T07:01:53;18.40;1.00
38131;DHT22;23947;51.894;4.622;2022-07-22T07:04:18;18.50;1.00
38131;DHT22;23947;51.894;4.622;2022-07-22T07:06:44;18.60;1.00
38131;DHT22;23947;51.894;4.622;2022-07-22T07:09:10;18.60;1.00
38131;DHT22;23947;51.894;4.622;2022-07-22T07:11:35;18.50;1.00
38131;DHT22;23947;51.894;4.622;2022-07-22T07:14:01;18.40;1.00
38131;DHT22;23947;51.894;4.622;2022-07-22T07:16:28;18.50;1.00
38131;DHT22;23947;51.894;4.622;2022-07-22T07:18:53;18.50;1.00
38131;DHT22;23947;51.894;4.622;2022-07-22T07:21:19;18.60;1.00
38131;DHT22;23947;51.894;4.622;2022-07-22T07:23:45;18.60;1.00
38131;DHT22;23947;51.894;4.622;2022-07-22T07:26:10;18.60;1.00
38131;DHT22;23947;51.894;4.622;2022-07-22T07:28:36;18.60;1.00
38131;DHT22;23947;51.894;4.622;2022-07-22T07:31:01;18.70;1.00
38131;DHT22;23947;51.894;4.622;2022-07-22T07:33:27;18.80;1.00
38131;DHT22;23947;51.894;4.622;2022-07-22T07:35:53;18.80;1.00
38131;DHT22;23947;51.894;4.622;2022-07-22T07:38:19;18.80;1.00
38131;DHT22;23947;51.894;4.622;2022-07-22T07:40:45;18.80;1.00
38131;DHT22;23947;51.894;4.622;2022-07-22T07:43:10;18.80;1.00
38131;DHT22;23947;51.894;4.622;2022-07-22T07:45:36;18.80;1.00
38131;DHT22;23947;51.894;4.622;2022-07-22T07:48:03;18.80;1.00
38131;DHT22;23947;51.894;4.622;2022-07-22T07:50:29;18.90;1.00
38131;DHT22;23947;51.894;4.622;2022-07-22T07:52:55;18.90;1.00
38131;DHT22;23947;51.894;4.622;2022-07-22T07:55:21;19.00;1.00
38131;DHT22;23947;51.894;4.622;2022-07-22T07:57:48;19.00;1.00
38131;DHT22;23947;51.894;4.622;2022-07-22T08:00:22;19.10;1.00
38131;DHT22;23947;51.894;4.622;2022-07-22T08:02:48;19.20;1.00
38131;DHT22;23947;51.894;4.622;2022-07-22T08:05:14;19.10;1.00
38131;DHT22;23947;51.894;4.622;2022-07-22T08:07:40;19.20;1.00
38131;DHT22;23947;51.894;4.622;2022-07-22T08:10:06;19.30;1.00
38131;DHT22;23947;51.894;4.622;2022-07-22T08:12:32;19.30;1.00
38131;DHT22;23947;51.894;4.622;2022-07-22T08:14:58;19.40;1.00
38131;DHT22;23947;51.894;4.622;2022-07-22T08:17:23;19.40;1.00
38131;DHT22;23947;51.894;4.622;2022-07-22T08:19:49;19.40;1.00
38131;DHT22;23947;51.894;4.622;2022-07-22T08:22:15;19.40;1.00
38131;DHT22;23947;51.894;4.622;2022-07-22T08:24:40;19.40;1.00
38131;DHT22;23947;51.894;4.622;2022-07-22T08:27:06;19.40;1.00
38131;DHT22;23947;51.894;4.622;2022-07-22T08:29:32;19.50;1.00
38131;DHT22;23947;51.894;4.622;2022-07-22T08:31:57;19.70;1.00
38131;DHT22;23947;51.894;4.622;2022-07-22T08:34:23;19.70;1.00
38131;DHT22;23947;51.894;4.622;2022-07-22T08:36:48;19.60;1.00
38131;DHT22;23947;51.894;4.622;2022-07-22T08:39:14;19.70;1.00
38131;DHT22;23947;51.894;4.622;2022-07-22T08:41:40;19.70;1.00
38131;DHT22;23947;51.894;4.622;2022-07-22T08:44:07;19.80;1.00
38131;DHT22;23947;51.894;4.622;2022-07-22T08:46:33;19.90;1.00
38131;DHT22;23947;51.894;4.622;2022-07-22T08:48:59;19.90;1.00
38131;DHT22;23947;51.894;4.622;2022-07-22T08:51:27;20.00;1.00
38131;DHT22;23947;51.894;4.622;2022-07-22T08:53:52;19.90;1.00
38131;DHT22;23947;51.894;4.622;2022-07-22T08:56:18;19.90;1.00
38131;DHT22;23947;51.894;4.622;2022-07-22T08:58:44;19.80;1.00
38131;DHT22;23947;51.894;4.622;2022-07-22T09:01:12;19.80;1.00
38131;DHT22;23947;51.894;4.622;2022-07-22T09:03:52;19.80;1.00
38131;DHT22;23947;51.894;4.622;2022-07-22T09:06:22;19.80;1.00
38131;DHT22;23947;51.894;4.622;2022-07-22T09:09:04;19.80;1.00
38131;DHT22;23947;51.894;4.622;2022-07-22T09:11:31;19.70;1.00
38131;DHT22;23947;51.894;4.622;2022-07-22T09:13:58;19.80;1.00
38131;DHT22;23947;51.894;4.622;2022-07-22T09:16:42;19.90;1.00
38131;DHT22;23947;51.894;4.622;2022-07-22T09:19:08;19.80;1.00
38131;DHT22;23947;51.894;4.622;2022-07-22T09:21:35;19.90;1.00
38131;DHT22;23947;51.894;4.622;2022-07-22T09:24:03;20.10;1.00
38131;DHT22;23947;51.894;4.622;2022-07-22T09:26:37;20.20;1.00
38131;DHT22;23947;51.894;4.622;2022-07-22T09:29:04;20.30;1.00
38131;DHT22;23947;51.894;4.622;2022-07-22T09:31:35;20.30;1.00
38131;DHT22;23947;51.894;4.622;2022-07-22T09:34:02;20.40;1.00
38131;DHT22;23947;51.894;4.622;2022-07-22T09:36:28;20.40;1.00
38131;DHT22;23947;51.894;4.622;2022-07-22T09:38:54;20.50;1.00
38131;DHT22;23947;51.894;4.622;2022-07-22T09:41:20;20.50;1.00
38131;DHT22;23947;51.894;4.622;2022-07-22T09:43:46;20.50;1.00
38131;DHT22;23947;51.894;4.622;2022-07-22T09:46:12;20.40;1.00
38131;DHT22;23947;51.894;4.622;2022-07-22T09:48:39;20.30;1.00
38131;DHT22;23947;51.894;4.622;2022-07-22T09:51:05;20.40;1.00
38131;DHT22;23947;51.894;4.622;2022-07-22T09:53:31;20.60;1.00
38131;DHT22;23947;51.894;4.622;2022-07-22T09:55:59;20.60;1.00
38131;DHT22;23947;51.894;4.622;2022-07-22T09:58:25;20.60;1.00
38131;DHT22;23947;51.894;4.622;2022-07-22T10:03:36;20.70;1.00
38131;DHT22;23947;51.894;4.622;2022-07-22T10:06:03;20.90;1.00
38131;DHT22;23947;51.894;4.622;2022-07-22T10:08:31;21.00;1.00
38131;DHT22;23947;51.894;4.622;2022-07-22T10:11:00;21.00;1.00
38131;DHT22;23947;51.894;4.622;2022-07-22T10:13:26;21.00;1.00
38131;DHT22;23947;51.894;4.622;2022-07-22T10:15:52;21.00;1.00
38131;DHT22;23947;51.894;4.622;2022-07-22T10:18:18;20.90;1.00
38131;DHT22;23947;51.894;4.622;2022-07-22T10:20:45;21.00;1.00
38131;DHT22;23947;51.894;4.622;2022-07-22T10:23:11;21.00;1.00
38131;DHT22;23947;51.894;4.622;2022-07-22T10:25:54;21.10;1.00
38131;DHT22;23947;51.894;4.622;2022-07-22T10:31:24;21.30;1.00
38131;DHT22;23947;51.894;4.622;2022-07-22T10:33:52;21.50;1.00
38131;DHT22;23947;51.894;4.622;2022-07-22T10:36:34;21.60;1.00
38131;DHT22;23947;51.894;4.622;2022-07-22T10:41:41;21.70;1.00
38131;DHT22;23947;51.894;4.622;2022-07-22T10:44:08;22.00;1.00
38131;DHT22;23947;51.894;4.622;2022-07-22T10:46:50;22.30;1.00
38131;DHT22;23947;51.894;4.622;2022-07-22T10:49:17;22.60;1.00
38131;DHT22;23947;51.894;4.622;2022-07-22T10:52:11;22.90;1.00
38131;DHT22;23947;51.894;4.622;2022-07-22T10:55:15;23.00;1.00
38131;DHT22;23947;51.894;4.622;2022-07-22T10:57:40;23.50;1.00
38131;DHT22;23947;51.894;4.622;2022-07-22T11:00:07;23.60;1.00
38131;DHT22;23947;51.894;4.622;2022-07-22T11:02:34;23.50;1.00
38131;DHT22;23947;51.894;4.622;2022-07-22T11:05:03;23.40;1.00
38131;DHT22;23947;51.894;4.622;2022-07-22T11:07:29;23.30;1.00
38131;DHT22;23947;51.894;4.622;2022-07-22T11:10:18;23.00;1.00
38131;DHT22;23947;51.894;4.622;2022-07-22T11:12:44;22.90;1.00
38131;DHT22;23947;51.894;4.622;2022-07-22T11:15:10;22.90;1.00
38131;DHT22;23947;51.894;4.622;2022-07-22T11:17:37;22.80;1.00
38131;DHT22;23947;51.894;4.622;2022-07-22T11:20:08;22.60;1.00
38131;DHT22;23947;51.894;4.622;2022-07-22T11:22:35;22.80;1.00
38131;DHT22;23947;51.894;4.622;2022-07-22T11:25:06;23.20;1.00
38131;DHT22;23947;51.894;4.622;2022-07-22T11:27:32;23.30;1.00
38131;DHT22;23947;51.894;4.622;2022-07-22T11:29:58;23.50;1.00
38131;DHT22;23947;51.894;4.622;2022-07-22T11:32:25;23.70;1.00
38131;DHT22;23947;51.894;4.622;2022-07-22T11:34:53;23.80;1.00
38131;DHT22;23947;51.894;4.622;2022-07-22T11:37:20;23.80;1.00
38131;DHT22;23947;51.894;4.622;2022-07-22T11:39:51;24.00;1.00
38131;DHT22;23947;51.894;4.622;2022-07-22T11:42:17;24.10;1.00
38131;DHT22;23947;51.894;4.622;2022-07-22T11:44:44;24.10;1.00
38131;DHT22;23947;51.894;4.622;2022-07-22T11:47:10;24.00;1.00
38131;DHT22;23947;51.894;4.622;2022-07-22T11:49:38;23.70;1.00
38131;DHT22;23947;51.894;4.622;2022-07-22T11:52:06;23.60;1.00
38131;DHT22;23947;51.894;4.622;2022-07-22T11:54:34;23.60;1.00
38131;DHT22;23947;51.894;4.622;2022-07-22T11:57:01;23.40;1.00
38131;DHT22;23947;51.894;4.622;2022-07-22T11:59:27;23.20;1.00
38131;DHT22;23947;51.894;4.622;2022-07-22T12:01:53;23.30;1.00
38131;DHT22;23947;51.894;4.622;2022-07-22T12:04:24;23.30;1.00
38131;DHT22;23947;51.894;4.622;2022-07-22T12:06:51;23.20;1.00
38131;DHT22;23947;51.894;4.622;2022-07-22T12:09:25;23.20;1.00
38131;DHT22;23947;51.894;4.622;2022-07-22T12:11:53;23.10;1.00
38131;DHT22;23947;51.894;4.622;2022-07-22T12:14:24;23.10;1.00
38131;DHT22;23947;51.894;4.622;2022-07-22T12:17:10;23.20;1.00
38131;DHT22;23947;51.894;4.622;2022-07-22T12:19:36;23.20;1.00
38131;DHT22;23947;51.894;4.622;2022-07-22T12:24:31;23.50;1.00
38131;DHT22;23947;51.894;4.622;2022-07-22T12:26:58;23.40;1.00
38131;DHT22;23947;51.894;4.622;2022-07-22T12:29:27;23.50;1.00
38131;DHT22;23947;51.894;4.622;2022-07-22T12:32:00;23.50;1.00
38131;DHT22;23947;51.894;4.622;2022-07-22T12:36:56;23.50;1.00
38131;DHT22;23947;51.894;4.622;2022-07-22T12:39:22;23.60;1.00
38131;DHT22;23947;51.894;4.622;2022-07-22T12:41:52;23.40;1.00
38131;DHT22;23947;51.894;4.622;2022-07-22T12:44:21;23.40;1.00
38131;DHT22;23947;51.894;4.622;2022-07-22T12:46:52;23.40;1.00
38131;DHT22;23947;51.894;4.622;2022-07-22T12:49:20;23.50;1.00
38131;DHT22;23947;51.894;4.622;2022-07-22T12:52:05;23.40;1.00
38131;DHT22;23947;51.894;4.622;2022-07-22T12:54:34;23.20;1.00
38131;DHT22;23947;51.894;4.622;2022-07-22T12:57:01;23.30;1.00
38131;DHT22;23947;51.894;4.622;2022-07-22T12:59:26;23.30;1.00
38131;DHT22;23947;51.894;4.622;2022-07-22T13:01:52;23.20;1.00
38131;DHT22;23947;51.894;4.622;2022-07-22T13:04:18;23.20;1.00
38131;DHT22;23947;51.894;4.622;2022-07-22T13:06:44;23.10;1.00
38131;DHT22;23947;51.894;4.622;2022-07-22T13:09:09;23.10;1.00
38131;DHT22;23947;51.894;4.622;2022-07-22T13:11:35;23.00;1.00
38131;DHT22;23947;51.894;4.622;2022-07-22T13:14:12;23.10;1.00
38131;DHT22;23947;51.894;4.622;2022-07-22T13:16:39;23.20;1.00
38131;DHT22;23947;51.894;4.622;2022-07-22T13:19:05;23.10;1.00
38131;DHT22;23947;51.894;4.622;2022-07-22T13:21:30;23.30;1.00
38131;DHT22;23947;51.894;4.622;2022-07-22T13:23:56;23.20;1.00
38131;DHT22;23947;51.894;4.622;2022-07-22T13:26:21;23.30;1.00
38131;DHT22;23947;51.894;4.622;2022-07-22T13:28:47;23.30;1.00
38131;DHT22;23947;51.894;4.622;2022-07-22T13:31:13;23.40;1.00
38131;DHT22;23947;51.894;4.622;2022-07-22T13:33:39;23.40;1.00
38131;DHT22;23947;51.894;4.622;2022-07-22T13:36:05;23.40;1.00
38131;DHT22;23947;51.894;4.622;2022-07-22T13:38:31;23.50;1.00
38131;DHT22;23947;51.894;4.622;2022-07-22T13:40:57;23.60;1.00
38131;DHT22;23947;51.894;4.622;2022-07-22T13:43:23;23.50;1.00
38131;DHT22;23947;51.894;4.622;2022-07-22T13:45:50;23.60;1.00
38131;DHT22;23947;51.894;4.622;2022-07-22T13:48:16;23.60;1.00
38131;DHT22;23947;51.894;4.622;2022-07-22T13:50:46;23.60;1.00
38131;DHT22;23947;51.894;4.622;2022-07-22T13:53:11;23.40;1.00
38131;DHT22;23947;51.894;4.622;2022-07-22T13:55:38;23.40;1.00
38131;DHT22;23947;51.894;4.622;2022-07-22T13:58:04;23.40;1.00
38131;DHT22;23947;51.894;4.622;2022-07-22T14:00:30;23.30;1.00
38131;DHT22;23947;51.894;4.622;2022-07-22T14:02:56;23.30;1.00
38131;DHT22;23947;51.894;4.622;2022-07-22T14:05:21;23.40;1.00
38131;DHT22;23947;51.894;4.622;2022-07-22T14:07:47;23.30;1.00
38131;DHT22;23947;51.894;4.622;2022-07-22T14:10:13;23.30;1.00
38131;DHT22;23947;51.894;4.622;2022-07-22T14:12:40;23.30;1.00
38131;DHT22;23947;51.894;4.622;2022-07-22T14:15:07;23.30;1.00
38131;DHT22;23947;51.894;4.622;2022-07-22T14:17:33;23.30;1.00
38131;DHT22;23947;51.894;4.622;2022-07-22T14:19:59;23.30;1.00
38131;DHT22;23947;51.894;4.622;2022-07-22T14:22:25;23.40;1.00
38131;DHT22;23947;51.894;4.622;2022-07-22T14:24:51;23.50;1.00
38131;DHT22;23947;51.894;4.622;2022-07-22T14:27:17;23.70;1.00
38131;DHT22;23947;51.894;4.622;2022-07-22T14:29:43;23.90;1.00
38131;DHT22;23947;51.894;4.622;2022-07-22T14:32:08;23.70;1.00
38131;DHT22;23947;51.894;4.622;2022-07-22T14:34:34;24.10;1.00
38131;DHT22;23947;51.894;4.622;2022-07-22T14:37:00;24.30;1.00
38131;DHT22;23947;51.894;4.622;2022-07-22T14:39:26;24.50;1.00
38131;DHT22;23947;51.894;4.622;2022-07-22T14:41:51;24.70;1.00
38131;DHT22;23947;51.894;4.622;2022-07-22T14:44:17;24.60;1.00
38131;DHT22;23947;51.894;4.622;2022-07-22T14:46:42;24.70;1.00
38131;DHT22;23947;51.894;4.622;2022-07-22T14:49:08;24.80;1.00
38131;DHT22;23947;51.894;4.622;2022-07-22T14:51:34;24.90;1.00
38131;DHT22;23947;51.894;4.622;2022-07-22T14:54:00;25.00;1.00
38131;DHT22;23947;51.894;4.622;2022-07-22T14:56:25;24.90;1.00
38131;DHT22;23947;51.894;4.622;2022-07-22T14:58:51;25.00;1.00
38131;DHT22;23947;51.894;4.622;2022-07-22T15:01:17;24.90;1.00
38131;DHT22;23947;51.894;4.622;2022-07-22T15:03:43;24.70;1.00
38131;DHT22;23947;51.894;4.622;2022-07-22T15:06:09;24.50;1.00
38131;DHT22;23947;51.894;4.622;2022-07-22T15:08:35;24.60;1.00
38131;DHT22;23947;51.894;4.622;2022-07-22T15:11:01;24.40;1.00
38131;DHT22;23947;51.894;4.622;2022-07-22T15:13:28;24.30;1.00
38131;DHT22;23947;51.894;4.622;2022-07-22T15:15:54;24.50;1.00
38131;DHT22;23947;51.894;4.622;2022-07-22T15:18:20;24.50;1.00
38131;DHT22;23947;51.894;4.622;2022-07-22T15:20:46;24.40;1.00
38131;DHT22;23947;51.894;4.622;2022-07-22T15:23:12;24.40;1.00
38131;DHT22;23947;51.894;4.622;2022-07-22T15:25:37;24.30;1.00
38131;DHT22;23947;51.894;4.622;2022-07-22T15:28:03;24.40;1.00
38131;DHT22;23947;51.894;4.622;2022-07-22T15:30:29;24.40;1.00
38131;DHT22;23947;51.894;4.622;2022-07-22T15:32:54;24.40;1.00
38131;DHT22;23947;51.894;4.622;2022-07-22T15:35:20;24.60;1.00
38131;DHT22;23947;51.894;4.622;2022-07-22T15:37:46;24.40;1.00
38131;DHT22;23947;51.894;4.622;2022-07-22T15:40:11;24.30;1.00
38131;DHT22;23947;51.894;4.622;2022-07-22T15:42:38;24.40;1.00
38131;DHT22;23947;51.894;4.622;2022-07-22T15:45:05;24.30;1.00
38131;DHT22;23947;51.894;4.622;2022-07-22T15:47:31;24.10;1.00
38131;DHT22;23947;51.894;4.622;2022-07-22T15:49:57;24.00;1.00
38131;DHT22;23947;51.894;4.622;2022-07-22T15:52:22;24.00;1.00
38131;DHT22;23947;51.894;4.622;2022-07-22T15:54:48;23.80;1.00